Easton, WA

5:06 PM PDT on September 19, 2014 (GMT -0700)
Cle Elum Wa - GiddyLodge | Change Station
CLOSE
Current Station
Personal Weather Station
Location: Cle Elum, WA
Elevation: 2117 ft
Nearby Weather Stations

Elev 2117 ft 47.21 °N, 121.11 °W | Updated 13 minutes ago

Partly Cloudy
Partly Cloudy
72.2 °F
Feels Like 77 °F
N
3.0
Wind Variable Wind from WNW
Gusts 14.0 mph

Today
High -- | Low -- °F
--% Chance of Precip.
Yesterday
High -- | Low -- °F
Precip. -- in
6:47 AM 7:08 PM
Waning Crescent, 16% visible
Pressure 30.13 in
Visibility 10.0 miles
Clouds Mostly Cloudy 2300 ft
Heat Index 77 °F
Dew Point 54 °F
Humidity 53%
Rainfall 0.00 in
Snow Depth 0 in , 0 in , 0 in
UV 2 out of 12
Pollen 1.10 out of 12
Air Quality Not available.
Flu Activity Not available.
METAR KSMP 192256Z AUTO VRB04KT 10SM BKN023 16/10 A3016 RMK AO2 SLP201 T01560100 $

More Conditions Fewer Conditions

Pressure 30.13 in
Visibility 10.0 miles
Clouds Mostly Cloudy 2300 ft
Heat Index 77 °F
Dew Point 54 °F
Humidity 53%
Rainfall 0.00 in
Snow Depth 0 in , 0 in , 0 in
UV 2 out of 12
Pollen 1.10 out of 12
Air Quality Not available.
Flu Activity Not available.
METAR KSMP 192256Z AUTO VRB04KT 10SM BKN023 16/10 A3016 RMK AO2 SLP201 T01560100 $

More Conditions Fewer Conditions

10-Day Weather Forecast

Almanac

Astronomy

Sep. 19, 2014 Rise Set
Actual Time 6:47 AM PDT 7:08 PM PDT
Civil Twilight 6:17 AM PDT 7:38 PM PDT
Nautical Twilight 5:40 AM PDT 8:14 PM PDT
Astronomical Twilight 5:03 AM PDT 8:52 PM PDT
Moon 2:24 AM PDT (9/19) 4:51 PM PDT (9/19)
Length of Visible Light 13h 21m
Length of Day
12h 20m
Tomorrow will be 3m 21s shorter.
Waning Crescent, 16% of the Moon is Illuminated
Today
Waning Crescent
Sep 24
New
Oct 1
First Quarter
Oct 8
Full
Oct 15
Last Quarter

Today's Extremes

State Highs State Lows

Community

WunderPhotos

Upload Photos

1,754,734 photos uploaded!

WunderBlogs® & News

Nearby

Snow Depth

Station Depth Elevation
Lone Pine 0 in 3800 ft
Wells Creek 0 in 4200 ft
Elbow Lake 0 in 3200 ft
Mount Crag 0 in 4050 ft
Stevens Pass 0 in 4070 ft

Earthquake Activity

City Distance Mag. Time & Date
Seabeck, Washington 88 miles 4.0 3:06 AM PDT
2014-09-17
Minimum magnitude displayed is 2.5.

Coastal Water Temperatures

Place Temperature
No Stations Reporting

Nearby Weather Stations